首页
METAR-TAF:

METAR-TAF

机场 :

Sioux Gateway Airport (Col. Bud Day Field)

蘇城, 艾奥瓦州, 美国

纬度: 42-24-09N, 经度: 096-23-04W, 海拔: 335米

当前天气观测

该预报发布于49分钟前的18:52 UTC
风速13节,风向西转西北
温度 7°C
湿度 66%
气压 1015 hPa
能見度: 16.1公里
阴天层高于2700英尺

METAR: KSUX 171852Z 30013KT 10SM OVC027 07/01 A2998 RMK AO2 SLP157 T00720011

时间: 13:41 (19:41 UTC)

预报

该预报发布于2小时和21分钟前的17:20 UTC
预报有效从17日的 18点(UTC)到 18日的 18点(UTC)
风速12节,风向西北,有时为17节阵风
能見度: 10公里
多云层高于3500英尺
短暂存在
从 17日的 18点(UTC)到 17日的 20点(UTC)
多云层高于2500英尺
从 17日的 2100点(UTC)
风速9节,风向西转西北
能見度: 10公里
散云层高于4000英尺
从 18日的 0600点(UTC)
风速5节,风向南转南东
能見度: 10公里
多云层高于12000英尺
从 18日的 1200点(UTC)
风速4节,风向东南
能見度: 10公里
阴天层高于6000英尺
附近有阵雨
从 18日的 1500点(UTC)
风速6节,风向南转西南
能見度: 10公里
多云层高于2500英尺

TAF: KSUX 171720Z 1718/1818 32012G17KT P6SM BKN035 TEMPO 1718/1720 BKN025 FM172100 30009KT P6SM SCT040 FM180600 15005KT P6SM BKN120 FM181200 14004KT P6SM VCSH OVC060 FM181500 20006KT P6SM BKN025

超过4000个机场的气象观测和天气预报(METAR&TAF报告)。

可查询的气象台以黄色和红色小点在地图上表示。

将鼠标移到小点上方,可查看气象台名称。

然后点击查看天气观测和预报。

如需切换地图:点击带黑十字的绿色按钮放大地图;点击带横线的绿色按钮缩小地图;或者点击绿色箭头查看邻近地区的地图。


METAR-TAF: